• Join FlightAware (Why Join?)
  • Login
  • US Flag 
03:59AM EST


 

Airport Tracker/Info


-or-


 

Live Flight TrackerFlight Track Log ✈ CES2307 ✈ 23-Sep-2013 ✈ ZLXY / XIY - ZGKL / KWL

Flight Track Log - Related Links

Times and Time Zones

All times are in EDT time to prevent confusion due to time zone crossing. See the CES2307 flight status page for this flight to view local times or setup timezone preferences in your user account.

Time Position Orientation Groundspeed Altitude Reporting Facility
EDT Latitude Longitude Course Direction KTS MPH feet Rate Location/Type
08:04AM 32.9433 108.9789 173° South  Level Estimated
08:05AM 32.8430 108.9937 173° South  Level Estimated
08:06AM 32.7427 109.0086 173° South  Level Estimated
08:07AM 32.6424 109.0234 173° South  Level Estimated
08:08AM 32.5422 109.0381 173° South  Level Estimated
08:09AM 32.4419 109.0529 173° South  Level Estimated
08:10AM 32.3416 109.0676 173° South  Level Estimated
08:11AM 32.2413 109.0823 173° South  Level Estimated
08:12AM 32.1410 109.0969 173° South  Level Estimated
08:13AM 32.0407 109.1115 173° South  Level Estimated
08:14AM 31.9405 109.1261 173° South  Level Estimated
08:15AM 31.8402 109.1407 173° South  Level Estimated
08:16AM 31.7399 109.1552 173° South  Level Estimated
08:17AM 31.6396 109.1697 173° South  Level Estimated
08:18AM 31.5393 109.1841 173° South  Level Estimated
08:19AM 31.4390 109.1985 173° South  Level Estimated
08:20AM 31.3387 109.2129 173° South  Level Estimated
08:21AM 31.2384 109.2273 173° South  Level Estimated
08:22AM 31.1381 109.2416 173° South  Level Estimated
08:23AM 31.0378 109.2559 173° South  Level Estimated
08:24AM 30.9375 109.2702 173° South  Level Estimated
08:25AM 30.8372 109.2844 173° South  Level Estimated
08:26AM 30.7369 109.2986 173° South  Level Estimated
08:27AM 30.6366 109.3128 173° South  Level Estimated
08:28AM 30.5363 109.3270 173° South  Level Estimated
08:29AM 30.4360 109.3411 173° South  Level Estimated
08:30AM 30.3356 109.3552 173° South  Level Estimated
08:31AM 30.2353 109.3692 173° South  Level Estimated
08:32AM 30.1350 109.3833 173° South  Level Estimated
08:33AM 30.0347 109.3973 173° South  Level Estimated
08:34AM 29.9344 109.4113 173° South  Level Estimated
08:35AM 29.8341 109.4252 173° South  Level Estimated
08:36AM 29.7337 109.4391 173° South  Level Estimated
08:37AM 29.6334 109.4530 173° South  Level Estimated
08:38AM 29.5331 109.4669 173° South  Level Estimated
08:39AM 29.4328 109.4807 173° South  Level Estimated
08:40AM 29.3324 109.4945 173° South  Level Estimated
08:41AM 29.2321 109.5083 173° South  Level Estimated
08:42AM 29.1318 109.5221 173° South  Level Estimated
08:43AM 29.0315 109.5358 173° South  Level Estimated
08:44AM 28.9311 109.5495 173° South  Level Estimated
08:45AM 28.8308 109.5632 173° South  Level Estimated
08:46AM 28.7304 109.5768 173° South  Level Estimated
08:47AM 28.6301 109.5905 173° South  Level Estimated
08:48AM 28.5298 109.6041 173° South  Level Estimated
08:49AM 28.4294 109.6176 173° South  Level Estimated
08:50AM 28.3291 109.6312 173° South  Level Estimated
08:51AM 28.2288 109.6447 173° South  Level Estimated
08:52AM 28.1284 109.6582 173° South  Level Estimated
08:53AM 28.0281 109.6717 173° South  Level Estimated
08:54AM 27.9277 109.6851 173° South  Level Estimated
08:55AM 27.8274 109.6985 173° South  Level Estimated
08:56AM 27.7270 109.7120 173° South  Level Estimated
08:57AM 27.6267 109.7253 173° South  Level Estimated
08:58AM 27.5263 109.7387 173° South  Level Estimated
08:59AM 27.4260 109.7520 173° South  Level Estimated
09:00AM 27.3256 109.7653 173° South  Level Estimated
09:01AM 27.2253 109.7786 173° South  Level Estimated
09:02AM 27.1249 109.7918 173° South  Level Estimated
09:03AM 27.0245 109.8050 173° South  Level Estimated
09:04AM 26.9242 109.8182 173° South  Level Estimated
09:05AM 26.8238 109.8314 173° South  Level Estimated
09:06AM 26.7234 109.8446 173° South  Level Estimated
09:07AM 26.6231 109.8577 173° South  Level Estimated
09:08AM 26.5227 109.8708 173° South  Level Estimated
09:09AM 26.4224 109.8839 173° South  Level Estimated
09:10AM 26.3220 109.8970 173° South  Level Estimated
09:11AM 26.2216 109.9100 173° South  Level Estimated
09:12AM 26.1213 109.9230 173° South  Level Estimated
09:13AM 26.0209 109.9360 173° South  Level Estimated
09:14AM 25.9205 109.9490 173° South  Level Estimated
09:15AM 25.8201 109.9620 173° South  Level Estimated
09:16AM 25.7198 109.9749 173° South  Level Estimated
09:17AM 25.6194 109.9878 173° South  Level Estimated
09:18AM 25.5190 110.0007 173° South  Level Estimated
09:19AM 25.4078 110.0150 173° South  Level Estimated
09:20AM 25.2965 110.0292 173° South  Level Estimated
09:21AM 25.2181 110.0392 173° South  Level Estimated
09:22AM 25.2181 110.0392 214° Southwest  Level Estimated
09:23AM 25.2181 110.0392 214° Southwest  Level Estimated
09:24AM 25.2181 110.0392 214° Southwest  Level Estimated
09:25AM 25.2181 110.0392 214° Southwest  Level Estimated
09:26AM 25.2181 110.0392 214° Southwest  Level Estimated
09:27AM 25.2181 110.0392 214° Southwest  Level Estimated
09:28AM 25.2181 110.0392 214° Southwest  Level Estimated